CYQA

Muskoka Airport

Muskoka, , Canada
METAR CYQA 152243Z AUTO 09008G15KT 050V140 9SM -SN OVC055 M03/M08 A3006 RMK ICG PRESFR SLP200
Observed Flight Rules
Nov-15 @ 22:43 UTC (30 minutes ago) Visual Flight Rules
Wind Visibility Clouds Conditions
90° at 8 knots
 Gusting to 15 knots
9 miles
  • Overcast at 5,500' AGL
  • Light Snow
Temperatures Readings
Current -3°C / 27°F
Dewpoint -8°C / 18°F
Humidity 69%
Altimeter 30.06" Hg
Pressure 1020 hPa
Elevation 282
METAR CYQA 152243Z AUTO 09008G15KT 050V140 9SM -SN OVC055 M03/M08 A3006 RMK ICG PRESFR SLP200
Observed Flight Rules
Nov-15 @ 22:43 UTC
(30 minutes ago)
VFR
Wind Visibility
90° at 8 knots
 Gusting to 15 knots
9 miles
Clouds
  • Overcast at 5,500' AGL
Conditions
  • Light Snow
Temperature Dewpoint
-3°C / 27°F -8°C / 18°F
Humidity Altimeter Pressure
69% 30.06" Hg 1020 hPa